Time;durP1;ratioP1;P1;durP2;ratioP2;P2;SDS_P1;SDS_P2;PMS_P1;PMS_P2;Temp;Humidity;BMP_temperature;BMP_pressure;BME280_temperature;BME280_humidity;BME280_pressure;Samples;Min_cycle;Max_cycle;Signal;HPM_P1;HPM_P2
2023/01/23 00:01:45;;;;;;;0.30;0.30;;;2.60;99.90;;;;;;5056406;28;20205;-82
2023/01/23 00:04:12;;;;;;;0.50;0.50;;;2.60;99.90;;;;;;5042533;28;20454;-82
2023/01/23 00:06:39;;;;;;;0.43;0.43;;;2.70;99.90;;;;;;5050571;28;21016;-83
2023/01/23 00:09:05;;;;;;;0.50;0.50;;;2.70;99.90;;;;;;5055726;28;20521;-83
2023/01/23 00:11:31;;;;;;;0.47;0.47;;;2.70;99.90;;;;;;5052307;28;20976;-83
2023/01/23 00:13:58;;;;;;;0.40;0.40;;;2.60;99.90;;;;;;5056706;28;20444;-82
2023/01/23 00:16:25;;;;;;;0.30;0.30;;;2.60;99.90;;;;;;5057502;28;20939;-83
2023/01/23 00:18:52;;;;;;;0.40;0.40;;;2.60;99.90;;;;;;5063952;28;20485;-82
2023/01/23 00:21:23;;;;;;;0.40;0.40;;;2.60;99.90;;;;;;5044700;28;20448;-82
2023/01/23 00:23:53;;;;;;;0.43;0.43;;;2.60;99.90;;;;;;5059492;28;20452;-82
2023/01/23 00:26:21;;;;;;;0.40;0.40;;;2.50;99.90;;;;;;5052734;28;20440;-82
2023/01/23 00:28:47;;;;;;;0.40;0.40;;;2.50;99.90;;;;;;5062161;28;20440;-82
2023/01/23 00:31:25;;;;;;;0.50;0.50;;;2.50;99.90;;;;;;5048294;28;20520;-83
2023/01/23 00:33:56;;;;;;;0.40;0.40;;;2.60;99.90;;;;;;5047080;28;20463;-83
2023/01/23 00:36:22;;;;;;;0.40;0.40;;;2.50;99.90;;;;;;5038686;28;20434;-83
2023/01/23 00:38:47;;;;;;;0.40;0.40;;;2.50;99.90;;;;;;5033530;28;20535;-83
2023/01/23 00:41:13;;;;;;;0.40;0.40;;;2.50;99.90;;;;;;5044296;28;20685;-83
2023/01/23 00:43:39;;;;;;;0.40;0.40;;;2.50;99.90;;;;;;5062569;28;20183;-83
2023/01/23 00:46:04;;;;;;;0.50;0.50;;;2.60;99.90;;;;;;5053005;28;20185;-83
2023/01/23 00:48:30;;;;;;;0.50;0.50;;;2.60;99.90;;;;;;5046988;28;20182;-82
2023/01/23 00:50:55;;;;;;;0.40;0.40;;;2.50;99.90;;;;;;5046536;28;20251;-83
2023/01/23 00:53:21;;;;;;;0.50;0.50;;;2.50;99.90;;;;;;5036257;28;20209;-82
2023/01/23 00:55:47;;;;;;;0.40;0.40;;;2.50;99.90;;;;;;5050130;28;20229;-82
2023/01/23 00:58:13;;;;;;;0.40;0.40;;;2.50;99.90;;;;;;5057363;28;20222;-82
2023/01/23 01:00:38;;;;;;;0.40;0.40;;;2.50;99.90;;;;;;5047041;28;20214;-83
2023/01/23 01:03:05;;;;;;;0.50;0.50;;;2.50;99.90;;;;;;5047789;28;20210;-83
2023/01/23 01:05:31;;;;;;;0.50;0.50;;;2.50;99.90;;;;;;5044601;28;20487;-82
2023/01/23 01:07:57;;;;;;;0.40;0.40;;;2.60;99.90;;;;;;5050226;28;20437;-83
2023/01/23 01:10:28;;;;;;;0.50;0.50;;;2.60;99.90;;;;;;5050435;28;20506;-83
2023/01/23 01:12:54;;;;;;;0.50;0.50;;;2.50;99.90;;;;;;5048540;28;20187;-83
2023/01/23 01:15:21;;;;;;;0.40;0.40;;;2.60;99.90;;;;;;5046148;28;20452;-83
2023/01/23 01:17:47;;;;;;;0.50;0.50;;;2.60;99.90;;;;;;5049626;28;20467;-83
2023/01/23 01:20:13;;;;;;;0.50;0.50;;;2.60;99.90;;;;;;5050363;28;20817;-83
2023/01/23 01:22:39;;;;;;;0.40;0.40;;;2.60;99.90;;;;;;5047430;28;20562;-83
2023/01/23 01:25:05;;;;;;;0.40;0.40;;;2.60;99.90;;;;;;5049754;28;20444;-83
2023/01/23 01:27:33;;;;;;;0.40;0.40;;;2.60;99.90;;;;;;5057677;28;20759;-82
2023/01/23 01:29:59;;;;;;;0.40;0.40;;;2.60;99.90;;;;;;5061236;28;20957;-82
2023/01/23 01:32:24;;;;;;;0.30;0.30;;;2.60;99.90;;;;;;5064006;28;20552;-82
2023/01/23 01:34:50;;;;;;;0.50;0.50;;;2.60;99.90;;;;;;5048254;28;20197;-82
2023/01/23 01:37:16;;;;;;;0.40;0.40;;;2.60;99.90;;;;;;5047230;28;20872;-83
2023/01/23 01:39:41;;;;;;;0.40;0.40;;;2.50;99.90;;;;;;5044379;28;20506;-82
2023/01/23 01:42:07;;;;;;;0.50;0.50;;;2.50;99.90;;;;;;5046176;28;20561;-83
2023/01/23 01:44:55;;;;;;;0.43;0.43;;;2.50;99.90;;;;;;5050834;28;20202;-83
2023/01/23 01:47:21;;;;;;;0.37;0.37;;;2.50;99.90;;;;;;5048796;28;20248;-83
2023/01/23 01:49:47;;;;;;;0.40;0.40;;;2.40;99.90;;;;;;5043714;28;20957;-82
2023/01/23 01:52:14;;;;;;;0.50;0.50;;;2.40;99.90;;;;;;5046084;28;20182;-83
2023/01/23 01:54:52;;;;;;;0.40;0.40;;;2.50;99.90;;;;;;5050898;28;20540;-82
2023/01/23 01:57:29;;;;;;;0.50;0.50;;;2.40;99.90;;;;;;5047258;28;20476;-83
2023/01/23 01:59:57;;;;;;;0.40;0.40;;;2.40;99.90;;;;;;5048743;28;20452;-83
2023/01/23 02:02:50;;;;;;;0.43;0.43;;;2.50;99.90;;;;;;5045035;28;20436;-83
2023/01/23 02:05:20;;;;;;;0.50;0.50;;;2.50;99.90;;;;;;5051826;28;21166;-83
2023/01/23 02:07:53;;;;;;;0.40;0.40;;;2.50;99.90;;;;;;5056844;28;20432;-83
2023/01/23 02:10:20;;;;;;;0.50;0.50;;;2.40;99.90;;;;;;5067111;22;20441;-83
2023/01/23 02:12:47;;;;;;;0.40;0.40;;;2.50;99.90;;;;;;5066963;28;21040;-83
2023/01/23 02:15:15;;;;;;;0.40;0.40;;;2.50;99.90;;;;;;5065178;28;20447;-82
2023/01/23 02:17:42;;;;;;;0.30;0.30;;;2.50;99.90;;;;;;5063008;28;20564;-83
2023/01/23 02:20:21;;;;;;;0.40;0.40;;;2.50;99.90;;;;;;5064793;28;20432;-82
2023/01/23 02:23:11;;;;;;;0.40;0.40;;;2.50;99.90;;;;;;5073711;28;20767;-83
2023/01/23 02:25:42;;;;;;;0.50;0.50;;;2.40;99.90;;;;;;5071239;28;20432;-83
2023/01/23 02:28:13;;;;;;;0.50;0.50;;;2.50;99.90;;;;;;5067919;28;20454;-83
2023/01/23 02:30:41;;;;;;;0.50;0.50;;;2.50;99.90;;;;;;5068353;28;20519;-82
2023/01/23 02:33:30;;;;;;;0.40;0.40;;;2.40;99.90;;;;;;5056970;28;20455;-83
2023/01/23 02:35:59;;;;;;;0.40;0.40;;;2.50;99.90;;;;;;5061350;28;21023;-83
2023/01/23 02:38:30;;;;;;;0.40;0.40;;;2.50;99.90;;;;;;5067908;28;20491;-83
2023/01/23 02:40:59;;;;;;;0.40;0.40;;;2.40;99.90;;;;;;5065039;28;20927;-83
2023/01/23 02:43:33;;;;;;;0.30;0.30;;;2.40;99.90;;;;;;5068696;28;20964;-83
2023/01/23 02:46:01;;;;;;;0.30;0.30;;;2.50;99.90;;;;;;5064521;28;20527;-83
2023/01/23 02:48:27;;;;;;;0.40;0.40;;;2.50;99.90;;;;;;5061958;28;21071;-83
2023/01/23 02:50:52;;;;;;;0.50;0.50;;;2.50;99.90;;;;;;5058899;28;20431;-83
2023/01/23 02:53:18;;;;;;;0.40;0.40;;;2.50;99.90;;;;;;5067832;28;20190;-82
2023/01/23 02:55:43;;;;;;;0.40;0.40;;;2.50;99.90;;;;;;5071705;28;20181;-83
2023/01/23 03:00:53;;;;;;;0.50;0.50;;;2.50;99.90;;;;;;5069612;28;20483;-82
2023/01/23 03:03:19;;;;;;;0.40;0.40;;;2.50;99.90;;;;;;5066754;28;20475;-83
2023/01/23 03:05:46;;;;;;;0.30;0.30;;;2.50;99.90;;;;;;5068821;28;21154;-83
2023/01/23 03:08:11;;;;;;;0.40;0.40;;;2.50;99.90;;;;;;5067987;28;21119;-82
2023/01/23 03:10:37;;;;;;;0.40;0.40;;;2.50;99.90;;;;;;5072542;28;20482;-83
2023/01/23 03:13:06;;;;;;;0.30;0.30;;;2.50;99.90;;;;;;5067902;28;20239;-83
2023/01/23 03:15:37;;;;;;;0.40;0.40;;;2.50;99.90;;;;;;5062081;28;20186;-83
2023/01/23 03:18:03;;;;;;;0.50;0.50;;;2.50;99.90;;;;;;5067768;28;20476;-83
2023/01/23 03:20:29;;;;;;;0.50;0.50;;;2.50;99.90;;;;;;5068575;28;20447;-82
2023/01/23 03:22:54;;;;;;;0.50;0.50;;;2.50;99.90;;;;;;5070731;28;20920;-82
2023/01/23 03:25:20;;;;;;;0.40;0.40;;;2.50;99.90;;;;;;5068277;28;20844;-82
2023/01/23 03:27:46;;;;;;;0.30;0.30;;;2.50;99.90;;;;;;5077106;28;20550;-83
2023/01/23 03:30:14;;;;;;;0.40;0.40;;;2.50;99.90;;;;;;5069011;28;20198;-82
2023/01/23 03:32:41;;;;;;;0.30;0.30;;;2.50;99.90;;;;;;5050113;28;20596;-83
2023/01/23 03:35:09;;;;;;;0.50;0.50;;;2.50;99.90;;;;;;5066892;28;20440;-82
2023/01/23 03:37:35;;;;;;;0.40;0.40;;;2.50;99.90;;;;;;5069728;28;20562;-83
2023/01/23 03:42:45;;;;;;;0.30;0.30;;;2.60;99.90;;;;;;5063302;28;21246;-83
2023/01/23 03:45:11;;;;;;;0.40;0.40;;;2.50;99.90;;;;;;5068527;28;20455;-82
2023/01/23 03:47:37;;;;;;;0.40;0.40;;;2.50;99.90;;;;;;5056885;28;20595;-82
2023/01/23 03:50:02;;;;;;;0.37;0.37;;;2.50;99.90;;;;;;5068588;28;20193;-82
2023/01/23 03:52:28;;;;;;;0.40;0.40;;;2.50;99.90;;;;;;5059971;28;20205;-83
2023/01/23 03:54:53;;;;;;;0.40;0.40;;;2.50;99.90;;;;;;5069787;28;20194;-83
2023/01/23 03:57:19;;;;;;;0.40;0.40;;;2.50;99.90;;;;;;5066646;28;20241;-82
2023/01/23 03:59:44;;;;;;;0.40;0.40;;;2.50;99.90;;;;;;5071765;28;20251;-83
2023/01/23 04:02:10;;;;;;;0.40;0.40;;;2.50;99.90;;;;;;5055872;28;20202;-82
2023/01/23 04:04:35;;;;;;;0.40;0.40;;;2.50;99.90;;;;;;5071940;23;20249;-82
2023/01/23 04:07:02;;;;;;;0.40;0.40;;;2.50;99.90;;;;;;5067042;28;20185;-82
2023/01/23 04:09:27;;;;;;;0.40;0.40;;;2.50;99.90;;;;;;5061718;28;20186;-83
2023/01/23 04:11:54;;;;;;;0.30;0.30;;;2.60;99.90;;;;;;5063374;28;20440;-83
2023/01/23 04:14:21;;;;;;;0.40;0.40;;;2.50;99.90;;;;;;5064551;28;20182;-83
2023/01/23 04:16:46;;;;;;;0.30;0.30;;;2.50;99.90;;;;;;5061980;28;20444;-83
2023/01/23 04:19:12;;;;;;;0.40;0.40;;;2.50;99.90;;;;;;5069031;28;20896;-83
2023/01/23 04:21:38;;;;;;;0.50;0.50;;;2.50;99.90;;;;;;5060146;28;20187;-82
2023/01/23 04:24:03;;;;;;;0.40;0.40;;;2.50;99.90;;;;;;5056109;28;20198;-82
2023/01/23 04:26:29;;;;;;;0.30;0.30;;;2.50;99.90;;;;;;5069455;28;20194;-83
2023/01/23 04:28:54;;;;;;;0.40;0.40;;;2.50;99.90;;;;;;5065083;28;20193;-83
2023/01/23 04:31:20;;;;;;;0.37;0.37;;;2.60;99.90;;;;;;5061340;28;20247;-83
2023/01/23 04:34:05;;;;;;;0.43;0.43;;;2.60;99.90;;;;;;5064023;28;20193;-83
2023/01/23 04:36:30;;;;;;;0.40;0.40;;;2.60;99.90;;;;;;5067308;28;20230;-83
2023/01/23 04:38:56;;;;;;;0.40;0.40;;;2.50;99.90;;;;;;5066389;28;20484;-82
2023/01/23 04:41:24;;;;;;;0.40;0.40;;;2.60;99.90;;;;;;5062003;28;20260;-83
2023/01/23 04:43:50;;;;;;;0.40;0.40;;;2.60;99.90;;;;;;5064070;28;20646;-83
2023/01/23 04:46:16;;;;;;;0.47;0.47;;;2.50;99.90;;;;;;5057555;28;20455;-83
2023/01/23 04:48:41;;;;;;;0.40;0.40;;;2.60;99.90;;;;;;5066676;28;20185;-83
2023/01/23 04:51:07;;;;;;;0.30;0.30;;;2.60;99.90;;;;;;5057946;28;20608;-83
2023/01/23 04:53:33;;;;;;;0.40;0.40;;;2.60;99.90;;;;;;5064427;28;20182;-83
2023/01/23 04:55:59;;;;;;;0.30;0.30;;;2.60;99.90;;;;;;5064180;28;20534;-83
2023/01/23 04:58:24;;;;;;;0.40;0.40;;;2.60;99.90;;;;;;5065929;28;20591;-83
2023/01/23 05:00:50;;;;;;;0.30;0.30;;;2.50;99.90;;;;;;5062711;28;20494;-83
2023/01/23 05:03:16;;;;;;;0.33;0.33;;;2.50;99.90;;;;;;5070396;28;20186;-83
2023/01/23 05:05:43;;;;;;;0.40;0.40;;;2.50;99.90;;;;;;5066530;28;20251;-83
2023/01/23 05:08:09;;;;;;;0.40;0.40;;;2.50;99.90;;;;;;5065439;28;20513;-83
2023/01/23 05:10:34;;;;;;;0.40;0.40;;;2.50;99.90;;;;;;5066117;28;20458;-83
2023/01/23 05:13:00;;;;;;;0.40;0.40;;;2.60;99.90;;;;;;5067040;28;20452;-82
2023/01/23 05:15:25;;;;;;;0.30;0.30;;;2.50;99.90;;;;;;5059195;28;20666;-83
2023/01/23 05:17:51;;;;;;;0.40;0.40;;;2.50;99.90;;;;;;5068860;28;20297;-82
2023/01/23 05:20:16;;;;;;;0.40;0.40;;;2.50;99.90;;;;;;5063331;28;20268;-82
2023/01/23 05:22:51;;;;;;;0.40;0.40;;;2.50;99.90;;;;;;5068105;28;20198;-83
2023/01/23 05:25:18;;;;;;;0.37;0.37;;;2.50;99.90;;;;;;5066686;28;20217;-83
2023/01/23 05:27:44;;;;;;;0.30;0.30;;;2.50;99.90;;;;;;5067315;28;20444;-83
2023/01/23 05:30:10;;;;;;;0.40;0.40;;;2.50;99.90;;;;;;5060300;28;20435;-82
2023/01/23 05:32:35;;;;;;;0.40;0.40;;;2.50;99.90;;;;;;5062888;28;20192;-83
2023/01/23 05:35:01;;;;;;;0.40;0.40;;;2.50;99.90;;;;;;5064878;28;20432;-83
2023/01/23 05:37:26;;;;;;;0.40;0.40;;;2.50;99.90;;;;;;5063360;28;20690;-82
2023/01/23 05:39:52;;;;;;;0.40;0.40;;;2.50;99.90;;;;;;5054742;28;20189;-83
2023/01/23 05:42:17;;;;;;;0.30;0.30;;;2.50;99.90;;;;;;5065590;28;20281;-83
2023/01/23 05:44:43;;;;;;;0.40;0.40;;;2.50;99.90;;;;;;5065913;28;22451;-83
2023/01/23 05:47:08;;;;;;;0.30;0.30;;;2.50;99.90;;;;;;5056070;28;20249;-83
2023/01/23 05:49:33;;;;;;;0.30;0.30;;;2.50;99.90;;;;;;5056550;28;20181;-83
2023/01/23 05:51:59;;;;;;;0.40;0.40;;;2.50;99.90;;;;;;5057400;28;20201;-82
2023/01/23 05:54:24;;;;;;;0.47;0.47;;;2.50;99.90;;;;;;5067114;28;20939;-83
2023/01/23 05:56:50;;;;;;;0.50;0.50;;;2.50;99.90;;;;;;5070598;28;20181;-83
2023/01/23 05:59:16;;;;;;;0.40;0.40;;;2.50;99.90;;;;;;5066103;28;20218;-83
2023/01/23 06:01:41;;;;;;;0.33;0.33;;;2.50;99.90;;;;;;5057409;28;20273;-82
2023/01/23 06:04:06;;;;;;;0.30;0.30;;;2.50;99.90;;;;;;5069927;28;20237;-83
2023/01/23 06:06:32;;;;;;;0.37;0.37;;;2.50;99.90;;;;;;5066963;28;20179;-83
2023/01/23 06:08:58;;;;;;;0.50;0.50;;;2.50;99.90;;;;;;5064868;28;20190;-83
2023/01/23 06:11:24;;;;;;;0.40;0.40;;;2.50;99.90;;;;;;5061605;28;20178;-83
2023/01/23 06:13:49;;;;;;;0.40;0.40;;;2.50;99.90;;;;;;5070033;28;20508;-83
2023/01/23 06:16:15;;;;;;;0.40;0.40;;;2.50;99.90;;;;;;5062421;28;20182;-83
2023/01/23 06:18:40;;;;;;;0.50;0.50;;;2.40;99.90;;;;;;5068071;28;20224;-82
2023/01/23 06:21:06;;;;;;;0.40;0.40;;;2.40;99.90;;;;;;5060452;28;20182;-83
2023/01/23 06:23:32;;;;;;;0.40;0.40;;;2.40;99.90;;;;;;5068551;28;20189;-83
2023/01/23 06:25:59;;;;;;;0.50;0.50;;;2.40;99.90;;;;;;5069135;28;20744;-82
2023/01/23 06:28:25;;;;;;;0.50;0.50;;;2.40;99.90;;;;;;5071901;28;20189;-83
2023/01/23 06:30:51;;;;;;;0.40;0.40;;;2.30;99.90;;;;;;5063040;28;20806;-82
2023/01/23 06:33:16;;;;;;;0.33;0.33;;;2.30;99.90;;;;;;5060178;28;20272;-83
2023/01/23 06:35:42;;;;;;;0.37;0.37;;;2.20;99.90;;;;;;5065558;28;20529;-82
2023/01/23 06:38:16;;;;;;;0.40;0.40;;;2.10;99.90;;;;;;5065639;28;20892;-82
2023/01/23 06:40:43;;;;;;;0.40;0.40;;;2.10;99.90;;;;;;5069135;28;20177;-82
2023/01/23 06:43:08;;;;;;;0.50;0.50;;;2.10;99.90;;;;;;5070556;28;20469;-82
2023/01/23 06:45:34;;;;;;;0.40;0.40;;;2.00;99.90;;;;;;5069967;28;22122;-82
2023/01/23 06:47:59;;;;;;;0.50;0.50;;;2.00;99.90;;;;;;5067972;28;20275;-82
2023/01/23 06:50:25;;;;;;;0.40;0.40;;;2.10;99.90;;;;;;5069339;28;20235;-82
2023/01/23 06:52:51;;;;;;;0.40;0.40;;;2.10;99.90;;;;;;5065540;28;20217;-81
2023/01/23 06:55:16;;;;;;;0.40;0.40;;;2.10;99.90;;;;;;5068976;28;20185;-82
2023/01/23 06:57:42;;;;;;;0.40;0.40;;;2.00;99.90;;;;;;5063780;28;20697;-82
2023/01/23 07:00:08;;;;;;;0.40;0.40;;;2.00;99.90;;;;;;5063047;28;20216;-82
2023/01/23 07:02:36;;;;;;;0.43;0.43;;;2.00;99.90;;;;;;5062073;28;20228;-81
2023/01/23 07:05:01;;;;;;;0.40;0.40;;;2.00;99.90;;;;;;5069447;28;20475;-81
2023/01/23 07:07:27;;;;;;;0.30;0.30;;;2.00;99.90;;;;;;5071000;28;20787;-81
2023/01/23 07:09:52;;;;;;;0.40;0.40;;;2.00;99.90;;;;;;5064236;28;20315;-81
2023/01/23 07:12:18;;;;;;;0.40;0.40;;;2.10;99.90;;;;;;5063326;28;20228;-81
2023/01/23 07:14:43;;;;;;;0.40;0.40;;;2.00;99.90;;;;;;5064973;28;20272;-81
2023/01/23 07:17:09;;;;;;;0.40;0.40;;;2.10;99.90;;;;;;5064952;28;20201;-81
2023/01/23 07:19:34;;;;;;;0.40;0.40;;;2.00;99.90;;;;;;5058136;28;20617;-81
2023/01/23 07:22:00;;;;;;;0.40;0.40;;;2.00;99.90;;;;;;5067538;28;20193;-81
2023/01/23 07:24:28;;;;;;;0.40;0.40;;;2.00;99.90;;;;;;5063005;28;20891;-81
2023/01/23 07:26:54;;;;;;;0.40;0.40;;;2.00;99.90;;;;;;5063755;28;20221;-81
2023/01/23 07:29:19;;;;;;;0.40;0.40;;;2.00;99.90;;;;;;5062169;28;20531;-81
2023/01/23 07:31:45;;;;;;;0.50;0.50;;;2.00;99.90;;;;;;5060775;28;20197;-80
2023/01/23 07:34:10;;;;;;;0.40;0.40;;;2.00;99.90;;;;;;5062865;28;20205;-84
2023/01/23 07:36:36;;;;;;;0.30;0.30;;;2.00;99.90;;;;;;5056252;28;20203;-82
2023/01/23 07:39:01;;;;;;;0.40;0.40;;;2.10;99.90;;;;;;5063191;28;20221;-79
2023/01/23 07:41:27;;;;;;;0.50;0.50;;;2.10;99.90;;;;;;5063640;28;22042;-80
2023/01/23 07:43:52;;;;;;;0.30;0.30;;;2.20;99.90;;;;;;5059088;28;20178;-81
2023/01/23 07:46:18;;;;;;;0.37;0.37;;;2.20;99.90;;;;;;5061866;28;20254;-80
2023/01/23 07:48:43;;;;;;;0.40;0.40;;;2.20;99.90;;;;;;5061904;28;20185;-80
2023/01/23 07:51:09;;;;;;;0.40;0.40;;;2.20;99.90;;;;;;5062954;28;20268;-79
2023/01/23 07:53:34;;;;;;;0.40;0.40;;;2.20;99.90;;;;;;5066581;28;20185;-80
2023/01/23 07:56:04;;;;;;;0.33;0.33;;;2.20;99.90;;;;;;5066491;28;20201;-80
2023/01/23 07:58:29;;;;;;;0.40;0.40;;;2.30;99.90;;;;;;5070656;28;20228;-80
2023/01/23 08:00:55;;;;;;;0.40;0.40;;;2.30;99.90;;;;;;5063766;28;20440;-79
2023/01/23 08:03:20;;;;;;;0.40;0.40;;;2.30;99.90;;;;;;5060905;28;20709;-80
2023/01/23 08:05:49;;;;;;;0.40;0.40;;;2.30;99.90;;;;;;5061572;28;20239;-80
2023/01/23 08:08:15;;;;;;;0.37;0.37;;;2.30;99.90;;;;;;5069312;28;20314;-80
2023/01/23 08:10:41;;;;;;;0.50;0.50;;;2.40;99.90;;;;;;5070333;28;20940;-80
2023/01/23 08:13:06;;;;;;;0.40;0.40;;;2.40;99.90;;;;;;5069636;28;20182;-80
2023/01/23 08:15:32;;;;;;;0.40;0.40;;;2.40;99.90;;;;;;5065658;28;20440;-80
2023/01/23 08:17:57;;;;;;;0.30;0.30;;;2.40;99.90;;;;;;5070210;28;20834;-80
2023/01/23 08:20:23;;;;;;;0.40;0.40;;;2.40;99.90;;;;;;5059533;28;20196;-80
2023/01/23 08:22:48;;;;;;;0.40;0.40;;;2.40;99.90;;;;;;5064295;28;20196;-80
2023/01/23 08:25:14;;;;;;;0.40;0.40;;;2.40;99.90;;;;;;5068913;28;20661;-81
2023/01/23 08:27:39;;;;;;;0.40;0.40;;;2.50;99.90;;;;;;5062681;28;20225;-80
2023/01/23 08:30:06;;;;;;;0.40;0.40;;;2.50;99.90;;;;;;5062424;28;20233;-80
2023/01/23 08:32:34;;;;;;;0.50;0.50;;;2.50;99.90;;;;;;5066432;28;20186;-79
2023/01/23 08:35:00;;;;;;;0.40;0.40;;;2.60;99.90;;;;;;5066800;28;20452;-80
2023/01/23 08:37:25;;;;;;;0.50;0.50;;;2.60;99.90;;;;;;5068580;28;20459;-79
2023/01/23 08:39:51;;;;;;;0.50;0.50;;;2.60;99.90;;;;;;5066390;28;20186;-80
2023/01/23 08:42:16;;;;;;;0.40;0.40;;;2.70;99.90;;;;;;5067269;28;20255;-81
2023/01/23 08:44:42;;;;;;;0.40;0.40;;;2.70;99.90;;;;;;5064587;28;20611;-81
2023/01/23 08:47:07;;;;;;;0.40;0.40;;;2.70;99.90;;;;;;5059390;28;20182;-81
2023/01/23 08:49:33;;;;;;;0.40;0.40;;;2.70;99.90;;;;;;5068281;28;20653;-82
2023/01/23 08:51:58;;;;;;;0.30;0.30;;;2.80;99.90;;;;;;5069088;28;20178;-81
2023/01/23 08:54:24;;;;;;;0.40;0.40;;;2.80;99.90;;;;;;5064715;28;20268;-81
2023/01/23 08:56:50;;;;;;;0.30;0.30;;;2.80;99.90;;;;;;5054804;28;20194;-81
2023/01/23 08:59:16;;;;;;;0.50;0.50;;;2.80;99.90;;;;;;5062019;28;20604;-81
2023/01/23 09:01:41;;;;;;;0.50;0.50;;;2.70;99.90;;;;;;5063780;28;20182;-81
2023/01/23 09:04:07;;;;;;;0.40;0.40;;;2.70;99.90;;;;;;5067505;28;20297;-81
2023/01/23 09:06:32;;;;;;;0.40;0.40;;;2.80;99.90;;;;;;5064159;28;20193;-81
2023/01/23 09:08:58;;;;;;;0.50;0.50;;;2.80;99.90;;;;;;5060075;28;20186;-81
2023/01/23 09:11:23;;;;;;;0.30;0.30;;;2.70;99.90;;;;;;5061942;28;20178;-80
2023/01/23 09:13:49;;;;;;;0.40;0.40;;;2.80;99.90;;;;;;5056558;28;20223;-80
2023/01/23 09:16:16;;;;;;;0.40;0.40;;;2.90;99.90;;;;;;5063417;28;20174;-81
2023/01/23 09:18:41;;;;;;;0.40;0.40;;;2.80;99.90;;;;;;5063457;28;20477;-81
2023/01/23 09:21:13;;;;;;;0.40;0.40;;;2.80;99.90;;;;;;5064049;28;20440;-81
2023/01/23 09:23:38;;;;;;;0.40;0.40;;;2.80;99.90;;;;;;5066575;28;20217;-81
2023/01/23 09:26:09;;;;;;;0.50;0.50;;;2.90;99.90;;;;;;5061725;28;20467;-82
2023/01/23 09:28:36;;;;;;;0.40;0.40;;;2.90;99.90;;;;;;5062443;28;20182;-81
2023/01/23 09:31:04;;;;;;;0.40;0.40;;;2.80;99.90;;;;;;5066699;28;20921;-81
2023/01/23 09:33:29;;;;;;;0.40;0.40;;;2.90;99.90;;;;;;5066196;28;20432;-81
2023/01/23 09:35:56;;;;;;;0.40;0.40;;;2.90;99.90;;;;;;5066744;28;20895;-82
2023/01/23 09:38:21;;;;;;;0.40;0.40;;;2.90;99.90;;;;;;5067375;28;20209;-81
2023/01/23 09:40:53;;;;;;;0.30;0.30;;;2.90;99.90;;;;;;5062882;28;20437;-81
2023/01/23 09:43:36;;;;;;;0.40;0.40;;;3.00;99.90;;;;;;5055918;28;20239;-81
2023/01/23 09:46:13;;;;;;;0.20;0.20;;;3.00;99.90;;;;;;5063563;28;20466;-81
2023/01/23 09:48:42;;;;;;;0.40;0.40;;;3.00;99.90;;;;;;5064365;28;20452;-82
2023/01/23 09:51:43;;;;;;;0.40;0.40;;;3.00;99.90;;;;;;5062868;28;20454;-81
2023/01/23 09:54:33;;;;;;;0.50;0.50;;;3.10;99.90;;;;;;5063747;28;20451;-81
2023/01/23 09:57:02;;;;;;;0.40;0.40;;;3.20;99.90;;;;;;5065530;28;20488;-83
2023/01/23 09:59:35;;;;;;;0.40;0.40;;;3.10;99.90;;;;;;5067735;28;21032;-82
2023/01/23 10:02:01;;;;;;;0.30;0.30;;;3.20;99.90;;;;;;5059528;28;20483;-81
2023/01/23 10:04:26;;;;;;;0.40;0.40;;;3.20;99.90;;;;;;5061172;28;20477;-81
2023/01/23 10:07:26;;;;;;;0.40;0.40;;;3.20;99.90;;;;;;5061529;28;20538;-81
2023/01/23 10:10:13;;;;;;;0.40;0.40;;;3.20;99.90;;;;;;5062710;28;20186;-82
2023/01/23 10:12:53;;;;;;;0.40;0.40;;;3.30;99.90;;;;;;5063555;28;20501;-81
2023/01/23 10:15:47;;;;;;;0.40;0.40;;;3.30;99.90;;;;;;5049555;28;20459;-82
2023/01/23 10:18:25;;;;;;;0.40;0.40;;;3.30;99.90;;;;;;5054636;28;20517;-81
2023/01/23 10:21:09;;;;;;;0.40;0.40;;;3.30;99.90;;;;;;5056604;28;20484;-81
2023/01/23 10:23:48;;;;;;;0.40;0.40;;;3.30;99.90;;;;;;5063584;28;21178;-81
2023/01/23 10:26:19;;;;;;;0.30;0.30;;;3.40;99.90;;;;;;5049592;28;20428;-81
2023/01/23 10:28:45;;;;;;;0.40;0.40;;;3.40;99.90;;;;;;5054462;28;20450;-81
2023/01/23 10:31:23;;;;;;;0.30;0.30;;;3.50;99.90;;;;;;5060483;28;20481;-81
2023/01/23 10:34:13;;;;;;;0.30;0.30;;;3.50;99.90;;;;;;5065571;28;20455;-82
2023/01/23 10:36:45;;;;;;;0.30;0.30;;;3.50;99.90;;;;;;5058689;28;20447;-82
2023/01/23 10:39:21;;;;;;;0.33;0.33;;;3.40;99.90;;;;;;5069573;28;20582;-82
2023/01/23 10:41:46;;;;;;;0.40;0.40;;;3.40;99.90;;;;;;5067728;28;20528;-82
2023/01/23 10:44:18;;;;;;;0.40;0.40;;;3.40;99.90;;;;;;5070394;28;20559;-82
2023/01/23 10:46:53;;;;;;;0.40;0.40;;;3.40;99.90;;;;;;5070221;28;20268;-82
2023/01/23 10:49:34;;;;;;;0.40;0.40;;;3.40;99.90;;;;;;5064393;28;20447;-82
2023/01/23 10:52:00;;;;;;;0.40;0.40;;;3.50;99.90;;;;;;5066617;28;20483;-83
2023/01/23 10:54:27;;;;;;;0.40;0.40;;;3.50;99.90;;;;;;5065216;28;20444;-82
2023/01/23 10:57:00;;;;;;;0.40;0.40;;;3.50;99.90;;;;;;5061898;28;20881;-83
2023/01/23 10:59:34;;;;;;;0.33;0.33;;;3.50;99.90;;;;;;5071146;28;20483;-82
2023/01/23 11:02:18;;;;;;;0.40;0.40;;;3.50;99.90;;;;;;5068047;28;20458;-83
2023/01/23 11:04:46;;;;;;;0.40;0.40;;;3.50;99.90;;;;;;5067568;28;20515;-82
2023/01/23 11:07:13;;;;;;;0.40;0.40;;;3.50;99.90;;;;;;5067562;28;20492;-82
2023/01/23 11:09:59;;;;;;;0.50;0.50;;;3.40;99.90;;;;;;5065060;28;20450;-82
2023/01/23 11:12:27;;;;;;;0.40;0.40;;;3.50;99.90;;;;;;5065331;28;20530;-82
2023/01/23 11:15:25;;;;;;;0.40;0.40;;;3.50;99.90;;;;;;5059959;28;20433;-82
2023/01/23 11:17:53;;;;;;;0.30;0.30;;;3.50;99.90;;;;;;5064022;28;20521;-81
2023/01/23 11:20:25;;;;;;;0.40;0.40;;;3.60;99.90;;;;;;5067761;28;20448;-82
2023/01/23 11:22:59;;;;;;;0.40;0.40;;;3.70;99.90;;;;;;5068590;28;20509;-82
2023/01/23 11:25:36;;;;;;;0.40;0.40;;;3.70;99.90;;;;;;5066233;28;20440;-83
2023/01/23 11:28:17;;;;;;;0.40;0.40;;;3.80;99.90;;;;;;5062559;28;20441;-83
2023/01/23 11:30:50;;;;;;;0.40;0.40;;;3.80;99.90;;;;;;5067218;28;20818;-83
2023/01/23 11:33:32;;;;;;;0.40;0.40;;;3.90;99.90;;;;;;5068794;28;20451;-82
2023/01/23 11:36:22;;;;;;;0.40;0.40;;;3.90;99.90;;;;;;5064415;28;20441;-83
2023/01/23 11:39:02;;;;;;;0.30;0.30;;;4.00;99.90;;;;;;5061201;28;20480;-84
2023/01/23 11:41:34;;;;;;;0.50;0.50;;;3.90;99.90;;;;;;5058033;28;20441;-84
2023/01/23 11:44:11;;;;;;;0.40;0.40;;;4.00;99.90;;;;;;5058966;28;21023;-86
2023/01/23 11:46:45;;;;;;;0.30;0.30;;;3.90;99.90;;;;;;5062438;28;20439;-84
2023/01/23 11:49:20;;;;;;;0.40;0.40;;;4.00;99.90;;;;;;5066460;28;20952;-85
2023/01/23 11:52:09;;;;;;;0.30;0.30;;;4.10;99.90;;;;;;5069780;28;20476;-85
2023/01/23 11:54:54;;;;;;;0.40;0.40;;;4.10;99.90;;;;;;5063080;28;20523;-85
2023/01/23 11:57:42;;;;;;;0.40;0.40;;;4.20;99.90;;;;;;5066512;28;20555;-85
2023/01/23 12:00:59;;;;;;;0.33;0.33;;;4.30;99.90;;;;;;5062086;28;20536;-84
2023/01/23 12:03:49;;;;;;;0.30;0.30;;;4.30;99.90;;;;;;5032018;28;20448;-85
2023/01/23 12:06:26;;;;;;;0.40;0.40;;;4.30;99.90;;;;;;5066698;28;20454;-85
2023/01/23 12:09:03;;;;;;;0.30;0.30;;;4.20;99.90;;;;;;5064038;28;20454;-84
2023/01/23 12:11:40;;;;;;;0.30;0.30;;;4.20;99.90;;;;;;5054652;28;20455;-84
2023/01/23 12:14:27;;;;;;;0.30;0.30;;;4.20;99.90;;;;;;5057347;28;20444;-84
2023/01/23 12:16:57;;;;;;;0.30;0.30;;;4.30;99.90;;;;;;5063654;28;20436;-85
2023/01/23 12:19:36;;;;;;;0.40;0.40;;;4.20;99.90;;;;;;5064271;28;20496;-83
2023/01/23 12:22:07;;;;;;;0.30;0.30;;;4.20;99.90;;;;;;5055861;28;20432;-84
2023/01/23 12:24:57;;;;;;;0.30;0.30;;;4.20;99.90;;;;;;5061302;28;20537;-84
2023/01/23 12:27:43;;;;;;;0.40;0.40;;;4.30;99.90;;;;;;5066801;28;20466;-83
2023/01/23 12:30:21;;;;;;;0.30;0.30;;;4.20;99.90;;;;;;5069375;28;20483;-85
2023/01/23 12:33:14;;;;;;;0.40;0.40;;;4.20;99.90;;;;;;5066854;28;20475;-85
2023/01/23 12:36:21;;;;;;;0.40;0.40;;;4.20;99.90;;;;;;5068383;28;21021;-85
2023/01/23 12:39:25;;;;;;;0.40;0.40;;;4.10;99.90;;;;;;5049034;28;20618;-85
2023/01/23 12:42:02;;;;;;;0.40;0.40;;;4.10;99.90;;;;;;5058034;28;20469;-83
2023/01/23 12:44:40;;;;;;;0.37;0.37;;;4.10;99.90;;;;;;5069288;28;20474;-83
2023/01/23 12:47:18;;;;;;;0.40;0.40;;;4.10;99.90;;;;;;5059511;28;20439;-83
2023/01/23 12:49:55;;;;;;;0.40;0.40;;;4.00;99.90;;;;;;5067088;28;20489;-83
2023/01/23 12:52:26;;;;;;;0.40;0.40;;;4.00;99.90;;;;;;5056566;28;20498;-84
2023/01/23 12:55:01;;;;;;;0.50;0.50;;;4.00;99.90;;;;;;5060785;28;20441;-84
2023/01/23 12:57:50;;;;;;;0.37;0.37;;;4.00;99.90;;;;;;5059695;28;20534;-83
2023/01/23 13:00:43;;;;;;;0.30;0.30;;;4.00;99.90;;;;;;5050374;28;20441;-84
2023/01/23 13:03:27;;;;;;;0.40;0.40;;;3.90;99.90;;;;;;5068789;28;20450;-84
2023/01/23 13:05:58;;;;;;;0.30;0.30;;;4.00;99.90;;;;;;5061973;28;20582;-84
2023/01/23 13:08:37;;;;;;;0.40;0.40;;;4.00;99.90;;;;;;5061880;28;21167;-84
2023/01/23 13:13:57;;;;;;;0.40;0.40;;;3.90;99.90;;;;;;5064305;28;20444;-82
2023/01/23 13:16:30;;;;;;;0.40;0.40;;;3.90;99.90;;;;;;5059735;28;20440;-83
2023/01/23 13:22:03;;;;;;;0.40;0.40;;;3.90;99.90;;;;;;5061000;28;20471;-83
2023/01/23 13:27:43;;;;;;;0.40;0.40;;;3.80;99.90;;;;;;5058726;28;20497;-82